createdAt,value
2023-01-21T01:13:04.292Z,1.00
2023-01-21T02:36:43.592Z,1.10
2023-01-21T02:42:16.558Z,1.20
2023-01-21T02:47:26.150Z,1.20
2023-01-21T02:52:29.182Z,1.30
2023-01-21T02:57:40.109Z,1.20
2023-01-21T03:03:23.847Z,1.20
2023-01-21T03:08:37.277Z,1.20
2023-01-21T03:14:06.372Z,1.20
2023-01-21T03:19:14.151Z,1.20
2023-01-21T03:24:17.305Z,1.20
2023-01-21T03:29:26.809Z,1.20
2023-01-21T03:34:33.514Z,1.20
2023-01-21T03:39:49.231Z,1.10
2023-01-21T03:44:52.089Z,1.10
2023-01-21T03:50:03.551Z,1.10
2023-01-21T03:55:07.557Z,1.10
2023-01-21T04:00:11.335Z,1.20
2023-01-21T04:05:14.546Z,1.20
2023-01-21T04:10:18.140Z,1.20
2023-01-21T04:15:21.115Z,1.20
2023-01-21T04:20:23.877Z,1.20
2023-01-21T04:25:26.552Z,1.20
2023-01-21T04:30:29.261Z,1.20
2023-01-21T04:49:44.340Z,1.30
2023-01-21T04:54:47.121Z,1.40
2023-01-21T08:02:40.602Z,1.60
2023-01-21T08:07:43.398Z,1.80
2023-01-21T08:12:46.145Z,1.80
2023-01-21T08:17:49.315Z,1.90
2023-01-21T08:22:52.178Z,2.00
2023-01-21T08:27:55.055Z,2.00
2023-01-21T09:00:35.155Z,1.90
2023-01-21T09:05:38.127Z,2.20
2023-01-21T11:26:08.173Z,2.60
2023-01-21T11:31:27.308Z,2.80
2023-01-21T11:36:30.320Z,3.10
2023-01-21T11:41:34.203Z,3.30
2023-01-21T11:46:41.395Z,3.40
2023-01-21T11:51:46.290Z,3.20
2023-01-21T11:56:59.579Z,3.00
2023-01-21T12:02:33.549Z,3.00
2023-01-21T12:07:40.883Z,3.10
2023-01-21T12:12:43.766Z,3.20
2023-01-21T12:18:22.116Z,3.30
2023-01-21T12:23:46.706Z,3.20
2023-01-21T12:29:21.034Z,3.20
2023-01-21T12:34:51.730Z,3.00
2023-01-21T12:39:58.003Z,2.90
2023-01-21T12:45:00.743Z,3.00
2023-01-21T12:50:11.521Z,3.00
2023-01-21T12:55:39.300Z,2.80
2023-01-21T13:00:46.651Z,2.70
2023-01-21T13:06:38.007Z,2.90
2023-01-21T13:11:58.875Z,3.00
2023-01-21T13:17:10.170Z,2.80
2023-01-21T13:22:23.641Z,2.80
2023-01-21T13:27:51.948Z,2.90
2023-01-21T13:33:07.443Z,2.70
2023-01-21T13:38:16.243Z,2.60
2023-01-21T13:43:24.830Z,2.40
2023-01-21T13:49:01.395Z,2.40
2023-01-21T13:54:12.814Z,2.30
2023-01-21T13:59:31.871Z,2.40
2023-01-21T14:04:52.277Z,2.40
2023-01-21T14:10:23.597Z,2.40
2023-01-21T14:30:42.539Z,2.10
2023-01-21T14:36:07.922Z,2.20
2023-01-21T14:41:12.477Z,2.10
2023-01-21T14:46:26.034Z,2.10
2023-01-21T14:51:31.867Z,1.90
2023-01-21T14:56:35.745Z,2.00
2023-01-21T15:01:45.371Z,2.00
2023-01-21T15:06:53.485Z,1.90
2023-01-21T15:12:14.008Z,1.90
2023-01-21T15:17:54.008Z,1.90
2023-01-21T15:23:30.003Z,1.80
2023-01-21T15:28:59.990Z,1.80
2023-01-21T15:34:11.899Z,1.80
2023-01-21T15:39:25.177Z,1.70
2023-01-21T15:44:36.907Z,1.70
2023-01-21T15:50:05.873Z,1.70
2023-01-21T15:55:48.055Z,1.70
2023-01-21T16:01:06.350Z,1.70
2023-01-21T16:06:58.058Z,1.70
2023-01-21T16:12:28.367Z,1.60
2023-01-21T16:17:48.654Z,1.60
2023-01-21T16:22:56.666Z,1.80
2023-01-21T16:27:59.499Z,1.70
2023-01-21T16:33:10.580Z,1.70
2023-01-21T16:38:30.874Z,1.70
2023-01-21T16:43:45.300Z,1.60
2023-01-21T16:48:53.949Z,1.60
2023-01-21T16:54:20.695Z,1.60
2023-01-21T16:59:29.855Z,1.60
2023-01-21T17:04:32.775Z,1.60
2023-01-21T17:09:37.388Z,1.60
2023-01-21T17:14:40.268Z,1.60
2023-01-21T17:19:44.252Z,1.70
2023-01-21T17:24:57.735Z,1.60
2023-01-21T17:30:25.396Z,1.60
2023-01-21T17:35:30.737Z,1.50
2023-01-21T17:40:42.537Z,1.50
2023-01-21T17:45:47.367Z,1.50
2023-01-21T17:50:50.594Z,1.60
2023-01-21T17:56:02.709Z,1.60
2023-01-21T18:01:05.584Z,1.60
2023-01-21T18:58:24.550Z,1.20
2023-01-21T19:03:27.606Z,1.30
2023-01-21T19:08:30.533Z,1.40
2023-01-21T19:13:33.226Z,1.50
2023-01-21T19:18:36.468Z,1.50
2023-01-21T19:35:45.115Z,1.40
2023-01-21T19:40:48.699Z,1.70
2023-01-21T19:45:52.972Z,1.70
2023-01-21T19:50:55.875Z,1.70
2023-01-21T19:55:59.388Z,1.60
2023-01-21T20:01:02.362Z,1.60
2023-01-21T20:06:05.832Z,1.60
2023-01-21T20:11:08.590Z,1.70
2023-01-21T20:16:21.507Z,1.60
2023-01-21T20:21:24.305Z,1.60
2023-01-21T20:26:28.830Z,1.70
2023-01-21T20:31:31.592Z,1.60
2023-01-21T20:36:34.374Z,1.60
2023-01-21T20:41:37.194Z,1.50
2023-01-21T20:46:40.353Z,1.50
2023-01-21T20:51:43.106Z,1.60
2023-01-21T20:56:46.009Z,1.60
2023-01-21T21:01:48.966Z,1.60
2023-01-21T21:06:52.688Z,1.70
2023-01-21T21:11:55.430Z,1.60
2023-01-21T21:16:58.487Z,1.60
2023-01-21T21:22:01.215Z,1.60
2023-01-21T21:27:04.018Z,1.60
2023-01-21T21:32:07.223Z,1.60
2023-01-21T21:37:12.605Z,1.60
2023-01-21T21:42:33.628Z,1.60
2023-01-21T21:47:55.348Z,1.60
2023-01-21T21:52:58.150Z,1.60
2023-01-21T21:58:00.990Z,1.60
2023-01-21T22:03:05.671Z,1.50
2023-01-21T22:08:09.480Z,1.60
2023-01-21T22:13:12.227Z,1.60
2023-01-21T22:18:15.147Z,1.60
2023-01-21T22:23:18.176Z,1.60
2023-01-21T22:28:21.827Z,1.60
2023-01-21T22:33:24.547Z,1.60
2023-01-21T22:38:27.325Z,1.60
2023-01-21T22:43:31.203Z,1.60
2023-01-21T22:48:34.292Z,1.60
2023-01-21T22:53:37.032Z,1.60
2023-01-21T22:58:40.149Z,1.60
2023-01-21T23:03:42.836Z,1.60
2023-01-21T23:08:46.005Z,1.50
2023-01-21T23:13:49.935Z,1.50
2023-01-21T23:18:53.252Z,1.40
2023-01-21T23:23:55.992Z,1.40
2023-01-21T23:28:59.046Z,1.40
2023-01-21T23:34:03.542Z,1.40
2023-01-21T23:39:06.465Z,1.40
2023-01-21T23:44:10.747Z,1.40
2023-01-21T23:49:15.988Z,1.30
2023-01-21T23:54:20.159Z,1.40
2023-01-21T23:59:23.257Z,1.30
